Epic Capri — 9HA2845 — position and weather

sailwx.info

Track history (hours):
 
Tides and Currents Weather Stations Pressure Air Temp Water Temp Dewpoint Dewpoint Depression Visibility Wind Speed Wind Dir Waves Ship Positions

Epic Capri

Last reported at 2017-Jun-23 08:17 UTC. Time now 2017-Jun-23 20:39 UTC.
Position N 37°56' W 010°50'.

Length 99 m; draft 5.1 m.

Type: Ship (hazmat cat B). MMSI: 256325000.

Date/timePositionNaut miles runAvg speedWind from/ knotsBaromVisibWave heightAir tempDewpointWater temp
2017-Jun-23 08:17N 37°56' W 010°50'3310.3
2017-Jun-23 05:06N 37°55' W 010°09'38 9.9
2017-Jun-23 01:12N 37°53' W 009°20'210.1
2017-Jun-23 01:01N 37°53' W 009°17'510.1
2017-Jun-23 00:30N 37°53' W 009°11'510.0
2017-Jun-23 00:00N 37°53' W 009°05'5 9.8
2017-Jun-22 23:31N 37°54' W 008°59'5 9.4
2017-Jun-22 23:01N 37°56' W 008°53'1 2.4
2017-Jun-22 22:30N 37°57' W 008°53'0 0.0
2017-Jun-22 22:00N 37°57' W 008°53'0 0.0
2017-Jun-22 21:30N 37°57' W 008°53'0 0.0
2017-Jun-22 21:00N 37°57' W 008°53'0 0.0
2017-Jun-22 20:27N 37°57' W 008°53'0 0.0
2017-Jun-22 20:00N 37°57' W 008°53'0 0.0
2017-Jun-22 19:30N 37°57' W 008°53'0 0.0
2017-Jun-22 19:00N 37°57' W 008°53'0 0.0
2017-Jun-22 18:30N 37°57' W 008°53'0 0.0
2017-Jun-22 18:00N 37°57' W 008°53'0 0.0
2017-Jun-22 17:30N 37°57' W 008°53'0 0.0
2017-Jun-22 16:57N 37°57' W 008°53'0 0.0
2017-Jun-22 16:30N 37°57' W 008°53'0 0.0
2017-Jun-22 16:00N 37°57' W 008°53'0 0.0
2017-Jun-22 15:30N 37°57' W 008°53'0 0.0
2017-Jun-22 15:00N 37°57' W 008°53'0 0.0
2017-Jun-22 14:30N 37°57' W 008°53'0 0.0
2017-Jun-22 13:30N 37°57' W 008°53'0 0.0
2017-Jun-22 13:00N 37°57' W 008°53'0 0.0
2017-Jun-22 12:30N 37°57' W 008°53'0 0.0
2017-Jun-22 12:00N 37°57' W 008°53'0 0.0
2017-Jun-22 11:30N 37°57' W 008°53'0 0.0
2017-Jun-22 11:00N 37°57' W 008°53'0 0.0
2017-Jun-22 10:30N 37°57' W 008°53'0 0.0
2017-Jun-22 10:00N 37°57' W 008°53'0 0.0
2017-Jun-22 09:30N 37°57' W 008°53'0 0.0
2017-Jun-22 09:00N 37°57' W 008°53'0 0.0
2017-Jun-22 08:30N 37°57' W 008°53'0 0.0
2017-Jun-22 08:00N 37°57' W 008°53'0 0.0
2017-Jun-22 07:30N 37°57' W 008°53'0 0.0
2017-Jun-22 07:00N 37°57' W 008°53'0 0.0
2017-Jun-22 06:27N 37°57' W 008°53'0 0.0
2017-Jun-22 06:00N 37°57' W 008°53'0 0.0
2017-Jun-22 05:30N 37°57' W 008°53'0 0.0
2017-Jun-22 05:00N 37°57' W 008°53'0 0.0
2017-Jun-22 04:30N 37°57' W 008°53'0 0.0
2017-Jun-22 04:00N 37°57' W 008°53'0 0.0
2017-Jun-22 03:30N 37°57' W 008°53'0 0.0
2017-Jun-22 03:00N 37°57' W 008°53'0 0.1
2017-Jun-22 02:30N 37°57' W 008°53'2 3.8
2017-Jun-22 02:00N 37°55' W 008°53'1 1.2
2017-Jun-22 01:30N 37°55' W 008°54'2 4.0
2017-Jun-22 01:00N 37°56' W 008°55'5 9.9
2017-Jun-22 00:30N 37°60' W 008°60'510.6
2017-Jun-22 00:00N 38°02' W 009°06'510.9
2017-Jun-21 23:30N 38°04' W 009°12'510.4
2017-Jun-21 23:00N 38°06' W 009°18'510.6
2017-Jun-21 22:30N 38°07' W 009°25'610.9
2017-Jun-21 21:55N 38°10' W 009°33'910.8
2017-Jun-21 21:05N 38°13' W 009°43'1210.8
2017-Jun-21 20:00N 38°17' W 009°57'12 9.6
2017-Jun-21 18:45N 38°26' W 010°08'310.9
2017-Jun-21 18:29N 38°29' W 010°08'610.9
2017-Jun-21 17:56N 38°35' W 010°10'510.8
2017-Jun-21 17:29N 38°39' W 010°11'610.9
2017-Jun-21 16:55N 38°46' W 010°12'611.0
2017-Jun-21 16:25N 38°51' W 010°12'410.9
2017-Jun-21 16:00N 38°56' W 010°12'510.1
2017-Jun-21 15:30N 39°01' W 010°11'610.2
2017-Jun-21 14:55N 39°06' W 010°08'410.1
2017-Jun-21 14:30N 39°10' W 010°05'  
2017-Jun-19 07:19N 39°52' W 009°34'310.6
2017-Jun-19 06:59N 39°49' W 009°35'510.4
2017-Jun-19 06:31N 39°44' W 009°37'510.4
2017-Jun-19 06:01N 39°39' W 009°40'510.7
2017-Jun-19 05:30N 39°34' W 009°43'510.4
2017-Jun-19 05:01N 39°30' W 009°46'510.0
2017-Jun-19 04:30N 39°25' W 009°49'510.2
2017-Jun-19 04:00N 39°21' W 009°52'510.4
2017-Jun-19 03:31N 39°16' W 009°55'510.5
2017-Jun-19 03:01N 39°11' W 009°57'510.2
2017-Jun-19 02:31N 39°06' W 009°57'510.3
2017-Jun-19 02:01N 39°01' W 009°57'510.3
2017-Jun-19 01:30N 38°56' W 009°57'510.2
2017-Jun-19 01:00N 38°51' W 009°57'510.0
2017-Jun-19 00:31N 38°46' W 009°57'510.1
2017-Jun-19 00:00N 38°41' W 009°57'510.1
2017-Jun-18 23:31N 38°36' W 009°56'5 9.9
2017-Jun-18 23:01N 38°31' W 009°54'510.0
2017-Jun-18 22:31N 38°26' W 009°53'5 9.7
2017-Jun-18 22:01N 38°21' W 009°51'5 9.2
2017-Jun-18 21:31N 38°18' W 009°47'5 9.9
2017-Jun-18 21:00N 38°16' W 009°41'510.2
2017-Jun-18 20:31N 38°14' W 009°35'510.3
2017-Jun-18 20:01N 38°13' W 009°29'4 8.7
2017-Jun-18 19:31N 38°10' W 009°25'5 9.9
2017-Jun-18 19:01N 38°08' W 009°19'510.3
2017-Jun-18 18:31N 38°05' W 009°13'510.0
2017-Jun-18 18:00N 38°03' W 009°08'510.3
2017-Jun-18 17:31N 38°01' W 009°02'5 9.7
2017-Jun-18 17:00N 37°58' W 008°57'3 6.6
2017-Jun-18 16:31N 37°57' W 008°53'1 0.9
2017-Jun-18 15:59N 37°57' W 008°53'0 0.0
2017-Jun-18 15:29N 37°57' W 008°53'0 0.0
2017-Jun-18 14:59N 37°57' W 008°53'0 0.0
2017-Jun-18 13:59N 37°57' W 008°53'0 0.0
2017-Jun-18 13:29N 37°57' W 008°53'0 0.0
2017-Jun-18 12:59N 37°57' W 008°53'0 0.0
2017-Jun-18 12:29N 37°57' W 008°53'0 0.0
2017-Jun-18 11:56N 37°57' W 008°53'0 0.0
2017-Jun-18 11:29N 37°57' W 008°53'0 0.0
2017-Jun-18 10:59N 37°57' W 008°53'0 0.0
2017-Jun-18 10:29N 37°57' W 008°53'0 0.0
2017-Jun-18 09:59N 37°57' W 008°53'0 0.0
2017-Jun-18 09:29N 37°57' W 008°53'0 0.0
2017-Jun-18 08:59N 37°57' W 008°53'0 0.0
2017-Jun-18 08:29N 37°57' W 008°53'0 0.0
2017-Jun-18 07:59N 37°57' W 008°53'0 0.0
2017-Jun-18 07:29N 37°57' W 008°53'0 0.0
2017-Jun-18 06:59N 37°57' W 008°53'0 0.0
2017-Jun-18 06:29N 37°57' W 008°53'0 0.0
2017-Jun-18 05:59N 37°57' W 008°53'0 0.0
2017-Jun-18 05:29N 37°57' W 008°53'0 0.0
2017-Jun-18 04:59N 37°57' W 008°53'0 0.0
2017-Jun-18 04:29N 37°57' W 008°53'0 0.0
2017-Jun-18 03:59N 37°57' W 008°53'0 0.0
2017-Jun-18 03:29N 37°57' W 008°53'0 0.0
2017-Jun-18 02:59N 37°57' W 008°53'0 0.0
2017-Jun-18 02:29N 37°57' W 008°53'0 0.0
2017-Jun-18 01:59N 37°57' W 008°53'0 0.0
2017-Jun-18 01:29N 37°57' W 008°53'0 0.0
2017-Jun-18 00:59N 37°57' W 008°53'0 0.0
2017-Jun-18 00:29N 37°57' W 008°53'0 0.0
2017-Jun-17 23:59N 37°57' W 008°53'0 0.0
2017-Jun-17 23:29N 37°57' W 008°53'0 0.0
2017-Jun-17 22:59N 37°57' W 008°53'0 0.0
2017-Jun-17 22:29N 37°57' W 008°53'0 0.0
2017-Jun-17 21:59N 37°57' W 008°53'0 0.0
2017-Jun-17 21:29N 37°57' W 008°53'0 0.0
2017-Jun-17 20:59N 37°57' W 008°53'0 0.0
2017-Jun-17 20:29N 37°57' W 008°53'0 0.0
2017-Jun-17 19:59N 37°57' W 008°53'0 0.0
2017-Jun-17 19:29N 37°57' W 008°53'0 0.0
2017-Jun-17 18:59N 37°57' W 008°53'0 0.0
2017-Jun-17 18:29N 37°57' W 008°53'0 0.0
2017-Jun-17 18:00N 37°57' W 008°53'2 3.7
2017-Jun-17 17:30N 37°55' W 008°53'3 6.9
2017-Jun-17 17:00N 37°53' W 008°56'510.4
2017-Jun-17 16:30N 37°49' W 009°01'510.4
2017-Jun-17 16:00N 37°46' W 009°06'510.8
2017-Jun-17 15:30N 37°42' W 009°11'510.9
2017-Jun-17 15:00N 37°38' W 009°15'1110.8
2017-Jun-17 14:00N 37°30' W 009°25'510.5
2017-Jun-17 13:30N 37°26' W 009°29'610.6
2017-Jun-17 12:59N 37°22' W 009°34'2010.4
2017-Jun-17 11:06N 37°08' W 009°52'110.5
2017-Jun-17 11:00N 37°08' W 009°53'510.4
2017-Jun-17 10:30N 37°04' W 009°57'510.1
2017-Jun-17 10:00N 37°01' W 010°02'5 9.9
2017-Jun-17 09:30N 36°57' W 010°06'5 9.8
2017-Jun-17 08:59N 36°53' W 010°10'8 9.8
2017-Jun-17 08:11N 36°47' W 010°17'210.0
2017-Jun-17 08:00N 36°46' W 010°18'9 9.9
2017-Jun-17 07:08N 36°40' W 010°26'110.0
2017-Jun-17 07:00N 36°39' W 010°27'5 9.7
2017-Jun-17 06:30N 36°36' W 010°32'5 9.7
2017-Jun-17 06:00N 36°32' W 010°36'5 9.7
2017-Jun-17 05:30N 36°29' W 010°40'5 9.5
2017-Jun-17 04:58N 36°26' W 010°45'5 9.2
2017-Jun-17 04:28N 36°22' W 010°49'18 9.5
2017-Jun-17 02:33N 36°10' W 011°05'1 9.2
2017-Jun-17 02:29N 36°09' W 011°06'9 9.3
2017-Jun-17 01:32N 36°04' W 011°14'0 8.9
2017-Jun-17 01:30N 36°03' W 011°14'6 9.3
2017-Jun-17 00:54N 35°60' W 011°20'6 9.2
2017-Jun-17 00:12N 35°56' W 011°26'4 9.2
2017-Jun-16 23:49N 35°54' W 011°30'3 9.2
2017-Jun-16 23:27N 35°52' W 011°33'5 9.3
2017-Jun-16 22:58N 35°50' W 011°38'29 9.0
2017-Jun-16 19:44N 35°33' W 012°07'2 9.1
2017-Jun-16 19:30N 35°32' W 012°10'27 8.7
2017-Jun-16 16:24N 35°18' W 012°37'5 8.0
2017-Jun-16 15:46N 35°15' W 012°43'76 7.5
2017-Jun-16 05:37N 34°25' W 013°53'2 8.3
2017-Jun-16 05:22N 34°24' W 013°55'  
Track history (hours):
 
Tides and Currents Weather Stations Pressure Air Temp Water Temp Dewpoint Dewpoint Depression Visibility Wind Speed Wind Dir Waves Ship Positions

Epic Capri

Last reported at 2017-Jun-23 08:17 UTC. Time now 2017-Jun-23 20:39 UTC.
Position N 37°56' W 010°50'.

Length 99 m; draft 5.1 m.

Type: Ship (hazmat cat B). MMSI: 256325000.

Date/timePositionNaut miles runAvg speedWind from/ knotsBaromVisibWave heightAir tempDewpointWater temp
2017-Jun-23 08:17N 37°56' W 010°50'3310.3
2017-Jun-23 05:06N 37°55' W 010°09'38 9.9
2017-Jun-23 01:12N 37°53' W 009°20'210.1
2017-Jun-23 01:01N 37°53' W 009°17'510.1
2017-Jun-23 00:30N 37°53' W 009°11'510.0
2017-Jun-23 00:00N 37°53' W 009°05'5 9.8
2017-Jun-22 23:31N 37°54' W 008°59'5 9.4
2017-Jun-22 23:01N 37°56' W 008°53'1 2.4
2017-Jun-22 22:30N 37°57' W 008°53'0 0.0
2017-Jun-22 22:00N 37°57' W 008°53'0 0.0
2017-Jun-22 21:30N 37°57' W 008°53'0 0.0
2017-Jun-22 21:00N 37°57' W 008°53'0 0.0
2017-Jun-22 20:27N 37°57' W 008°53'0 0.0
2017-Jun-22 20:00N 37°57' W 008°53'0 0.0
2017-Jun-22 19:30N 37°57' W 008°53'0 0.0
2017-Jun-22 19:00N 37°57' W 008°53'0 0.0
2017-Jun-22 18:30N 37°57' W 008°53'0 0.0
2017-Jun-22 18:00N 37°57' W 008°53'0 0.0
2017-Jun-22 17:30N 37°57' W 008°53'0 0.0
2017-Jun-22 16:57N 37°57' W 008°53'0 0.0
2017-Jun-22 16:30N 37°57' W 008°53'0 0.0
2017-Jun-22 16:00N 37°57' W 008°53'0 0.0
2017-Jun-22 15:30N 37°57' W 008°53'0 0.0
2017-Jun-22 15:00N 37°57' W 008°53'0 0.0
2017-Jun-22 14:30N 37°57' W 008°53'0 0.0
2017-Jun-22 13:30N 37°57' W 008°53'0 0.0
2017-Jun-22 13:00N 37°57' W 008°53'0 0.0
2017-Jun-22 12:30N 37°57' W 008°53'0 0.0
2017-Jun-22 12:00N 37°57' W 008°53'0 0.0
2017-Jun-22 11:30N 37°57' W 008°53'0 0.0
2017-Jun-22 11:00N 37°57' W 008°53'0 0.0
2017-Jun-22 10:30N 37°57' W 008°53'0 0.0
2017-Jun-22 10:00N 37°57' W 008°53'0 0.0
2017-Jun-22 09:30N 37°57' W 008°53'0 0.0
2017-Jun-22 09:00N 37°57' W 008°53'0 0.0
2017-Jun-22 08:30N 37°57' W 008°53'0 0.0
2017-Jun-22 08:00N 37°57' W 008°53'0 0.0
2017-Jun-22 07:30N 37°57' W 008°53'0 0.0
2017-Jun-22 07:00N 37°57' W 008°53'0 0.0
2017-Jun-22 06:27N 37°57' W 008°53'0 0.0
2017-Jun-22 06:00N 37°57' W 008°53'0 0.0
2017-Jun-22 05:30N 37°57' W 008°53'0 0.0
2017-Jun-22 05:00N 37°57' W 008°53'0 0.0
2017-Jun-22 04:30N 37°57' W 008°53'0 0.0
2017-Jun-22 04:00N 37°57' W 008°53'0 0.0
2017-Jun-22 03:30N 37°57' W 008°53'0 0.0
2017-Jun-22 03:00N 37°57' W 008°53'0 0.1
2017-Jun-22 02:30N 37°57' W 008°53'2 3.8
2017-Jun-22 02:00N 37°55' W 008°53'1 1.2
2017-Jun-22 01:30N 37°55' W 008°54'2 4.0
2017-Jun-22 01:00N 37°56' W 008°55'5 9.9
2017-Jun-22 00:30N 37°60' W 008°60'510.6
2017-Jun-22 00:00N 38°02' W 009°06'510.9
2017-Jun-21 23:30N 38°04' W 009°12'510.4
2017-Jun-21 23:00N 38°06' W 009°18'510.6
2017-Jun-21 22:30N 38°07' W 009°25'610.9
2017-Jun-21 21:55N 38°10' W 009°33'910.8
2017-Jun-21 21:05N 38°13' W 009°43'1210.8
2017-Jun-21 20:00N 38°17' W 009°57'12 9.6
2017-Jun-21 18:45N 38°26' W 010°08'310.9
2017-Jun-21 18:29N 38°29' W 010°08'610.9
2017-Jun-21 17:56N 38°35' W 010°10'510.8
2017-Jun-21 17:29N 38°39' W 010°11'610.9
2017-Jun-21 16:55N 38°46' W 010°12'611.0
2017-Jun-21 16:25N 38°51' W 010°12'410.9
2017-Jun-21 16:00N 38°56' W 010°12'510.1
2017-Jun-21 15:30N 39°01' W 010°11'610.2
2017-Jun-21 14:55N 39°06' W 010°08'410.1
2017-Jun-21 14:30N 39°10' W 010°05'  
2017-Jun-19 07:19N 39°52' W 009°34'310.6
2017-Jun-19 06:59N 39°49' W 009°35'510.4
2017-Jun-19 06:31N 39°44' W 009°37'510.4
2017-Jun-19 06:01N 39°39' W 009°40'510.7
2017-Jun-19 05:30N 39°34' W 009°43'510.4
2017-Jun-19 05:01N 39°30' W 009°46'510.0
2017-Jun-19 04:30N 39°25' W 009°49'510.2
2017-Jun-19 04:00N 39°21' W 009°52'510.4
2017-Jun-19 03:31N 39°16' W 009°55'510.5
2017-Jun-19 03:01N 39°11' W 009°57'510.2
2017-Jun-19 02:31N 39°06' W 009°57'510.3
2017-Jun-19 02:01N 39°01' W 009°57'510.3
2017-Jun-19 01:30N 38°56' W 009°57'510.2
2017-Jun-19 01:00N 38°51' W 009°57'510.0
2017-Jun-19 00:31N 38°46' W 009°57'510.1
2017-Jun-19 00:00N 38°41' W 009°57'510.1
2017-Jun-18 23:31N 38°36' W 009°56'5 9.9
2017-Jun-18 23:01N 38°31' W 009°54'510.0
2017-Jun-18 22:31N 38°26' W 009°53'5 9.7
2017-Jun-18 22:01N 38°21' W 009°51'5 9.2
2017-Jun-18 21:31N 38°18' W 009°47'5 9.9
2017-Jun-18 21:00N 38°16' W 009°41'510.2
2017-Jun-18 20:31N 38°14' W 009°35'510.3
2017-Jun-18 20:01N 38°13' W 009°29'4 8.7
2017-Jun-18 19:31N 38°10' W 009°25'5 9.9
2017-Jun-18 19:01N 38°08' W 009°19'510.3
2017-Jun-18 18:31N 38°05' W 009°13'510.0
2017-Jun-18 18:00N 38°03' W 009°08'510.3
2017-Jun-18 17:31N 38°01' W 009°02'5 9.7
2017-Jun-18 17:00N 37°58' W 008°57'3 6.6
2017-Jun-18 16:31N 37°57' W 008°53'1 0.9
2017-Jun-18 15:59N 37°57' W 008°53'0 0.0
2017-Jun-18 15:29N 37°57' W 008°53'0 0.0
2017-Jun-18 14:59N 37°57' W 008°53'0 0.0
2017-Jun-18 13:59N 37°57' W 008°53'0 0.0
2017-Jun-18 13:29N 37°57' W 008°53'0 0.0
2017-Jun-18 12:59N 37°57' W 008°53'0 0.0
2017-Jun-18 12:29N 37°57' W 008°53'0 0.0
2017-Jun-18 11:56N 37°57' W 008°53'0 0.0
2017-Jun-18 11:29N 37°57' W 008°53'0 0.0
2017-Jun-18 10:59N 37°57' W 008°53'0 0.0
2017-Jun-18 10:29N 37°57' W 008°53'0 0.0
2017-Jun-18 09:59N 37°57' W 008°53'0 0.0
2017-Jun-18 09:29N 37°57' W 008°53'0 0.0
2017-Jun-18 08:59N 37°57' W 008°53'0 0.0
2017-Jun-18 08:29N 37°57' W 008°53'0 0.0
2017-Jun-18 07:59N 37°57' W 008°53'0 0.0
2017-Jun-18 07:29N 37°57' W 008°53'0 0.0
2017-Jun-18 06:59N 37°57' W 008°53'0 0.0
2017-Jun-18 06:29N 37°57' W 008°53'0 0.0
2017-Jun-18 05:59N 37°57' W 008°53'0 0.0
2017-Jun-18 05:29N 37°57' W 008°53'0 0.0
2017-Jun-18 04:59N 37°57' W 008°53'0 0.0
2017-Jun-18 04:29N 37°57' W 008°53'0 0.0
2017-Jun-18 03:59N 37°57' W 008°53'0 0.0
2017-Jun-18 03:29N 37°57' W 008°53'0 0.0
2017-Jun-18 02:59N 37°57' W 008°53'0 0.0
2017-Jun-18 02:29N 37°57' W 008°53'0 0.0
2017-Jun-18 01:59N 37°57' W 008°53'0 0.0
2017-Jun-18 01:29N 37°57' W 008°53'0 0.0
2017-Jun-18 00:59N 37°57' W 008°53'0 0.0
2017-Jun-18 00:29N 37°57' W 008°53'0 0.0
2017-Jun-17 23:59N 37°57' W 008°53'0 0.0
2017-Jun-17 23:29N 37°57' W 008°53'0 0.0
2017-Jun-17 22:59N 37°57' W 008°53'0 0.0
2017-Jun-17 22:29N 37°57' W 008°53'0 0.0
2017-Jun-17 21:59N 37°57' W 008°53'0 0.0
2017-Jun-17 21:29N 37°57' W 008°53'0 0.0
2017-Jun-17 20:59N 37°57' W 008°53'0 0.0
2017-Jun-17 20:29N 37°57' W 008°53'0 0.0
2017-Jun-17 19:59N 37°57' W 008°53'0 0.0
2017-Jun-17 19:29N 37°57' W 008°53'0 0.0
2017-Jun-17 18:59N 37°57' W 008°53'0 0.0
2017-Jun-17 18:29N 37°57' W 008°53'0 0.0
2017-Jun-17 18:00N 37°57' W 008°53'2 3.7
2017-Jun-17 17:30N 37°55' W 008°53'3 6.9
2017-Jun-17 17:00N 37°53' W 008°56'510.4
2017-Jun-17 16:30N 37°49' W 009°01'510.4
2017-Jun-17 16:00N 37°46' W 009°06'510.8
2017-Jun-17 15:30N 37°42' W 009°11'510.9
2017-Jun-17 15:00N 37°38' W 009°15'1110.8
2017-Jun-17 14:00N 37°30' W 009°25'510.5
2017-Jun-17 13:30N 37°26' W 009°29'610.6
2017-Jun-17 12:59N 37°22' W 009°34'2010.4
2017-Jun-17 11:06N 37°08' W 009°52'110.5
2017-Jun-17 11:00N 37°08' W 009°53'510.4
2017-Jun-17 10:30N 37°04' W 009°57'510.1
2017-Jun-17 10:00N 37°01' W 010°02'5 9.9
2017-Jun-17 09:30N 36°57' W 010°06'5 9.8
2017-Jun-17 08:59N 36°53' W 010°10'8 9.8
2017-Jun-17 08:11N 36°47' W 010°17'210.0
2017-Jun-17 08:00N 36°46' W 010°18'9 9.9
2017-Jun-17 07:08N 36°40' W 010°26'110.0
2017-Jun-17 07:00N 36°39' W 010°27'5 9.7
2017-Jun-17 06:30N 36°36' W 010°32'5 9.7
2017-Jun-17 06:00N 36°32' W 010°36'5 9.7
2017-Jun-17 05:30N 36°29' W 010°40'5 9.5
2017-Jun-17 04:58N 36°26' W 010°45'5 9.2
2017-Jun-17 04:28N 36°22' W 010°49'18 9.5
2017-Jun-17 02:33N 36°10' W 011°05'1 9.2
2017-Jun-17 02:29N 36°09' W 011°06'9 9.3
2017-Jun-17 01:32N 36°04' W 011°14'0 8.9
2017-Jun-17 01:30N 36°03' W 011°14'6 9.3
2017-Jun-17 00:54N 35°60' W 011°20'6 9.2
2017-Jun-17 00:12N 35°56' W 011°26'4 9.2
2017-Jun-16 23:49N 35°54' W 011°30'3 9.2
2017-Jun-16 23:27N 35°52' W 011°33'5 9.3
2017-Jun-16 22:58N 35°50' W 011°38'29 9.0
2017-Jun-16 19:44N 35°33' W 012°07'2 9.1
2017-Jun-16 19:30N 35°32' W 012°10'27 8.7
2017-Jun-16 16:24N 35°18' W 012°37'5 8.0
2017-Jun-16 15:46N 35°15' W 012°43'76 7.5
2017-Jun-16 05:37N 34°25' W 013°53'2 8.3
2017-Jun-16 05:22N 34°24' W 013°55'  

Dump ship's entire track history